createdAt,value
2023-03-08T00:01:13.856Z,1.33
2023-03-08T00:03:17.638Z,1.42
2023-03-08T00:05:21.353Z,1.30
2023-03-08T00:07:25.349Z,1.23
2023-03-08T00:09:29.056Z,0.98
2023-03-08T00:11:32.674Z,0.82
2023-03-08T00:13:36.957Z,0.73
2023-03-08T00:15:41.962Z,0.98
2023-03-08T00:17:45.616Z,0.68
2023-03-08T00:19:49.294Z,1.00
2023-03-08T00:21:52.900Z,1.10
2023-03-08T00:23:57.455Z,0.73
2023-03-08T00:26:01.471Z,1.00
2023-03-08T00:28:05.139Z,0.80
2023-03-08T00:30:10.571Z,0.70
2023-03-08T00:32:17.105Z,1.20
2023-03-08T00:34:21.054Z,0.88
2023-03-08T00:36:24.827Z,1.08
2023-03-08T00:38:28.905Z,0.80
2023-03-08T00:40:32.566Z,1.00
2023-03-08T00:42:36.253Z,0.70
2023-03-08T00:44:39.982Z,0.70
2023-03-08T00:46:43.620Z,1.30
2023-03-08T00:48:51.286Z,0.90
2023-03-08T00:50:55.031Z,0.75
2023-03-08T00:52:58.604Z,0.82
2023-03-08T00:55:02.076Z,1.30
2023-03-08T00:57:06.048Z,0.63
2023-03-08T00:59:09.808Z,0.77
2023-03-08T01:01:17.088Z,0.73
2023-03-08T01:03:23.108Z,1.40
2023-03-08T01:05:28.168Z,0.80
2023-03-08T01:09:37.284Z,0.73
2023-03-08T01:11:41.698Z,0.75
2023-03-08T01:13:45.537Z,0.52
2023-03-08T01:15:49.851Z,0.93
2023-03-08T01:17:53.343Z,0.55
2023-03-08T01:19:57.152Z,1.65
2023-03-08T01:22:02.193Z,0.55
2023-03-08T01:24:06.457Z,0.55
2023-03-08T01:26:13.530Z,0.60
2023-03-08T01:28:17.121Z,0.55
2023-03-08T01:30:22.487Z,0.63
2023-03-08T01:32:25.976Z,0.40
2023-03-08T01:34:29.569Z,0.63
2023-03-08T01:36:33.273Z,0.75
2023-03-08T01:38:38.904Z,0.75
2023-03-08T01:40:42.827Z,0.95
2023-03-08T01:42:46.931Z,0.43
2023-03-08T01:44:55.713Z,1.00
2023-03-08T01:47:02.875Z,0.45
2023-03-08T01:49:29.044Z,0.43
2023-03-08T01:51:45.203Z,0.30
2023-03-08T01:53:51.084Z,0.22
2023-03-08T01:55:56.335Z,0.50
2023-03-08T01:58:00.257Z,0.65
2023-03-08T02:00:19.890Z,0.52
2023-03-08T02:02:30.049Z,0.22
2023-03-08T02:04:34.570Z,0.60
2023-03-08T02:06:39.099Z,0.40
2023-03-08T02:08:43.600Z,0.98
2023-03-08T02:10:51.138Z,0.70
2023-03-08T02:12:55.813Z,0.60
2023-03-08T02:15:00.936Z,0.40
2023-03-08T02:17:05.563Z,1.02
2023-03-08T02:19:17.123Z,0.60
2023-03-08T02:21:24.077Z,0.50
2023-03-08T02:23:31.610Z,0.43
2023-03-08T02:25:35.274Z,0.32
2023-03-08T02:27:38.952Z,0.32
2023-03-08T02:29:43.015Z,0.43
2023-03-08T02:31:46.822Z,0.50
2023-03-08T02:33:50.741Z,0.52
2023-03-08T02:35:54.611Z,1.08
2023-03-08T02:37:58.328Z,0.32
2023-03-08T02:40:04.004Z,0.60
2023-03-08T02:42:07.922Z,0.32
2023-03-08T02:44:11.947Z,0.35
2023-03-08T02:46:16.820Z,0.57
2023-03-08T02:48:21.177Z,0.43
2023-03-08T02:50:25.092Z,0.45
2023-03-08T02:52:28.760Z,0.60
2023-03-08T02:54:33.045Z,0.40
2023-03-08T02:56:39.305Z,0.50
2023-03-08T02:58:45.165Z,0.60
2023-03-08T03:00:49.343Z,0.50
2023-03-08T03:02:53.587Z,0.38
2023-03-08T03:04:57.779Z,0.52
2023-03-08T03:07:02.577Z,0.50
2023-03-08T03:09:08.767Z,0.47
2023-03-08T03:11:14.524Z,0.40
2023-03-08T03:13:20.869Z,0.45
2023-03-08T03:15:25.170Z,0.30
2023-03-08T03:17:33.158Z,0.30
2023-03-08T03:19:37.086Z,0.35
2023-03-08T03:21:41.241Z,0.50
2023-03-08T03:23:45.159Z,0.43
2023-03-08T03:25:52.747Z,0.50
2023-03-08T03:27:57.905Z,0.40
2023-03-08T03:30:08.853Z,0.90
2023-03-08T03:32:13.423Z,1.00
2023-03-08T03:34:17.527Z,1.50
2023-03-08T03:36:24.665Z,0.43
2023-03-08T03:38:29.414Z,0.35
2023-03-08T03:40:33.004Z,0.30
2023-03-08T03:42:39.079Z,0.25
2023-03-08T03:44:47.565Z,0.32
2023-03-08T03:46:57.196Z,0.30
2023-03-08T03:49:02.987Z,0.22
2023-03-08T03:51:13.746Z,0.25
2023-03-08T03:53:22.724Z,0.75
2023-03-08T03:55:30.182Z,0.60
2023-03-08T03:57:35.404Z,0.43
2023-03-08T03:59:41.472Z,0.50
2023-03-08T04:01:46.319Z,0.40
2023-03-08T04:04:08.716Z,0.17
2023-03-08T04:06:16.766Z,0.28
2023-03-08T04:08:21.239Z,0.68
2023-03-08T04:10:25.841Z,0.68
2023-03-08T04:12:30.572Z,0.35
2023-03-08T04:14:34.241Z,0.43
2023-03-08T04:16:40.982Z,0.32
2023-03-08T04:18:55.510Z,0.32
2023-03-08T04:21:02.607Z,0.43
2023-03-08T04:23:06.486Z,0.32
2023-03-08T04:25:15.314Z,1.08
2023-03-08T04:27:24.791Z,0.30
2023-03-08T04:29:28.456Z,0.30
2023-03-08T04:31:32.000Z,0.32
2023-03-08T04:33:38.053Z,0.43
2023-03-08T04:35:41.977Z,0.30
2023-03-08T04:37:49.693Z,0.38
2023-03-08T04:39:55.297Z,0.68
2023-03-08T04:41:59.587Z,0.32
2023-03-08T04:44:06.336Z,0.82
2023-03-08T04:46:18.445Z,0.52
2023-03-08T04:48:21.732Z,0.32
2023-03-08T04:50:25.138Z,0.60
2023-03-08T04:52:32.480Z,0.52
2023-03-08T04:54:37.515Z,0.60
2023-03-08T04:56:51.269Z,0.35
2023-03-08T04:58:55.933Z,0.50
2023-03-08T05:01:01.140Z,0.43
2023-03-08T05:03:04.615Z,0.35
2023-03-08T05:05:08.571Z,0.60
2023-03-08T05:07:12.031Z,0.35
2023-03-08T05:09:15.947Z,0.60
2023-03-08T05:13:26.885Z,0.30
2023-03-08T05:15:30.187Z,0.32
2023-03-08T05:17:33.470Z,0.52
2023-03-08T05:19:37.700Z,0.40
2023-03-08T05:21:42.168Z,0.55
2023-03-08T05:23:46.136Z,0.52
2023-03-08T05:25:54.802Z,0.63
2023-03-08T05:27:59.583Z,0.50
2023-03-08T05:30:02.988Z,0.30
2023-03-08T05:32:11.885Z,0.30
2023-03-08T05:34:16.268Z,0.45
2023-03-08T05:36:23.002Z,0.80
2023-03-08T05:38:29.257Z,0.35
2023-03-08T05:40:33.239Z,0.43
2023-03-08T05:42:37.840Z,0.52
2023-03-08T05:44:43.128Z,0.43
2023-03-08T05:46:51.433Z,0.60
2023-03-08T05:48:55.497Z,0.47
2023-03-08T05:50:59.092Z,0.70
2023-03-08T05:53:02.498Z,0.63
2023-03-08T05:55:07.952Z,0.38
2023-03-08T05:57:11.691Z,0.52
2023-03-08T05:59:15.365Z,0.60
2023-03-08T06:01:22.013Z,0.43
2023-03-08T06:03:26.296Z,0.60
2023-03-08T06:05:30.325Z,0.43
2023-03-08T06:07:34.972Z,0.55
2023-03-08T06:09:44.300Z,0.43
2023-03-08T06:11:51.307Z,0.38
2023-03-08T06:13:54.880Z,0.73
2023-03-08T06:16:01.393Z,0.30
2023-03-08T06:18:07.996Z,0.40
2023-03-08T06:20:12.598Z,0.70
2023-03-08T06:22:20.172Z,0.77
2023-03-08T06:24:24.048Z,0.32
2023-03-08T06:26:27.988Z,0.30
2023-03-08T06:28:31.950Z,0.88
2023-03-08T06:30:35.460Z,0.38
2023-03-08T06:34:47.195Z,0.38
2023-03-08T06:36:52.111Z,0.55
2023-03-08T06:38:56.628Z,0.77
2023-03-08T06:41:01.115Z,0.52
2023-03-08T06:43:04.674Z,0.47
2023-03-08T06:45:10.285Z,0.40
2023-03-08T06:47:14.010Z,0.60
2023-03-08T06:49:17.899Z,0.68
2023-03-08T06:51:23.502Z,0.30
2023-03-08T06:53:26.990Z,0.60
2023-03-08T06:55:36.589Z,0.65
2023-03-08T06:57:39.905Z,0.55
2023-03-08T06:59:43.110Z,0.98
2023-03-08T07:01:46.374Z,0.70
2023-03-08T07:03:50.275Z,0.30
2023-03-08T07:05:53.522Z,0.57
2023-03-08T07:07:58.315Z,0.70
2023-03-08T07:10:01.687Z,0.50
2023-03-08T07:12:07.780Z,0.43
2023-03-08T07:14:11.576Z,0.70
2023-03-08T07:16:15.269Z,0.68
2023-03-08T07:18:18.611Z,0.60
2023-03-08T07:20:23.494Z,0.55
2023-03-08T07:22:26.904Z,0.70
2023-03-08T07:24:33.914Z,1.05
2023-03-08T07:26:37.487Z,0.63
2023-03-08T07:28:40.778Z,0.50
2023-03-08T07:30:47.975Z,0.85
2023-03-08T07:32:54.945Z,0.55
2023-03-08T07:34:59.112Z,0.57
2023-03-08T07:37:02.732Z,0.32
2023-03-08T07:39:06.133Z,1.17
2023-03-08T07:41:11.433Z,0.70
2023-03-08T07:43:15.908Z,0.50
2023-03-08T07:45:37.033Z,0.22
2023-03-08T07:47:41.888Z,0.65
2023-03-08T07:49:45.936Z,0.43
2023-03-08T07:51:51.616Z,0.50
2023-03-08T07:53:56.328Z,0.32
2023-03-08T07:56:00.766Z,0.50
2023-03-08T07:58:06.007Z,0.20
2023-03-08T08:00:11.808Z,0.40
2023-03-08T08:02:18.971Z,0.52
2023-03-08T08:04:23.498Z,0.80
2023-03-08T08:06:27.207Z,0.43
2023-03-08T08:08:30.947Z,0.40
2023-03-08T08:10:35.534Z,0.68
2023-03-08T08:12:39.794Z,0.70
2023-03-08T08:14:45.640Z,0.50
2023-03-08T08:16:51.142Z,0.52
2023-03-08T08:21:04.898Z,0.68
2023-03-08T08:23:09.997Z,0.77
2023-03-08T08:25:13.527Z,0.52
2023-03-08T08:27:17.181Z,0.52
2023-03-08T08:29:21.521Z,0.73
2023-03-08T08:31:31.536Z,0.50
2023-03-08T08:33:37.340Z,0.63
2023-03-08T08:35:43.608Z,0.63
2023-03-08T08:37:49.804Z,0.80
2023-03-08T08:39:53.937Z,0.82
2023-03-08T08:41:57.895Z,0.80
2023-03-08T08:44:01.705Z,0.43
2023-03-08T08:46:06.750Z,0.60
2023-03-08T08:48:11.994Z,0.52
2023-03-08T08:52:19.393Z,0.47
2023-03-08T08:54:24.240Z,0.40
2023-03-08T08:56:30.545Z,0.40
2023-03-08T08:58:36.882Z,0.88
2023-03-08T09:00:41.256Z,1.17
2023-03-08T09:02:45.629Z,0.65
2023-03-08T09:04:51.485Z,0.65
2023-03-08T09:06:55.221Z,0.95
2023-03-08T09:09:00.322Z,1.40
2023-03-08T09:11:06.123Z,0.70
2023-03-08T09:13:09.912Z,0.52
2023-03-08T09:15:13.422Z,1.08
2023-03-08T09:17:16.800Z,0.63
2023-03-08T09:19:20.725Z,0.55
2023-03-08T09:21:27.311Z,0.65
2023-03-08T09:23:31.139Z,0.63
2023-03-08T09:25:34.996Z,0.75
2023-03-08T09:27:40.419Z,0.57
2023-03-08T09:29:44.095Z,0.85
2023-03-08T09:31:47.670Z,1.20
2023-03-08T09:33:54.343Z,1.08
2023-03-08T09:35:59.406Z,1.00
2023-03-08T09:38:04.748Z,0.73
2023-03-08T09:40:15.916Z,1.15
2023-03-08T09:42:25.396Z,0.85
2023-03-08T09:44:57.741Z,0.73
2023-03-08T09:47:04.234Z,1.00
2023-03-08T09:49:16.895Z,0.80
2023-03-08T09:51:22.459Z,1.00
2023-03-08T09:53:31.957Z,1.10
2023-03-08T09:55:37.833Z,1.35
2023-03-08T09:57:48.761Z,1.27
2023-03-08T09:59:56.113Z,1.02
2023-03-08T10:02:05.217Z,1.10
2023-03-08T10:04:34.383Z,1.30
2023-03-08T10:06:45.706Z,0.75
2023-03-08T10:08:58.822Z,0.93
2023-03-08T10:11:04.497Z,0.73
2023-03-08T10:13:30.578Z,1.23
2023-03-08T10:15:41.995Z,1.02
2023-03-08T10:19:58.964Z,1.38
2023-03-08T10:22:11.078Z,1.70
2023-03-08T10:24:26.957Z,1.48
2023-03-08T10:26:30.980Z,1.80
2023-03-08T10:28:34.770Z,3.40
2023-03-08T10:30:41.663Z,2.88
2023-03-08T10:32:47.240Z,3.28
2023-03-08T10:34:51.257Z,3.00
2023-03-08T10:36:59.551Z,3.15
2023-03-08T10:39:11.516Z,3.00
2023-03-08T10:41:18.469Z,3.33
2023-03-08T10:43:30.131Z,3.10
2023-03-08T10:45:34.653Z,3.58
2023-03-08T10:47:38.313Z,4.47
2023-03-08T10:49:43.893Z,4.10
2023-03-08T10:51:58.314Z,5.03
2023-03-08T10:54:04.220Z,4.80
2023-03-08T10:56:26.922Z,3.78
2023-03-08T10:58:35.636Z,4.35
2023-03-08T11:00:40.950Z,4.30
2023-03-08T11:04:55.032Z,3.67
2023-03-08T11:06:59.253Z,4.50
2023-03-08T11:09:05.450Z,6.18
2023-03-08T11:11:11.740Z,5.07
2023-03-08T11:13:25.419Z,4.30
2023-03-08T11:15:32.083Z,4.85
2023-03-08T11:17:39.622Z,4.75
2023-03-08T11:20:00.381Z,4.75
2023-03-08T11:22:15.592Z,4.13
2023-03-08T11:24:29.565Z,4.05
2023-03-08T11:26:40.824Z,4.22
2023-03-08T11:29:13.165Z,4.70
2023-03-08T11:31:29.491Z,4.55
2023-03-08T11:34:04.797Z,4.53
2023-03-08T11:36:14.799Z,3.90
2023-03-08T11:38:23.948Z,4.35
2023-03-08T11:40:30.715Z,4.60
2023-03-08T11:42:50.096Z,4.18
2023-03-08T11:45:08.859Z,3.88
2023-03-08T11:47:48.447Z,3.85
2023-03-08T11:50:06.607Z,3.92
2023-03-08T11:52:24.985Z,3.60
2023-03-08T11:54:46.600Z,4.07
2023-03-08T11:56:56.776Z,4.47
2023-03-08T11:59:07.037Z,4.03
2023-03-08T12:01:20.612Z,4.05
2023-03-08T12:03:29.557Z,5.00
2023-03-08T12:05:38.695Z,3.97
2023-03-08T12:07:47.801Z,3.97
2023-03-08T12:10:00.788Z,4.32
2023-03-08T12:12:11.424Z,3.92
2023-03-08T12:14:20.403Z,4.22
2023-03-08T12:16:28.059Z,4.75
2023-03-08T12:18:39.247Z,4.32
2023-03-08T12:20:46.506Z,3.65
2023-03-08T12:22:58.990Z,4.15
2023-03-08T12:25:09.488Z,3.92
2023-03-08T12:27:20.790Z,3.83
2023-03-08T12:29:28.085Z,4.13
2023-03-08T12:31:38.743Z,3.70
2023-03-08T12:33:42.552Z,4.15
2023-03-08T12:35:55.043Z,3.88
2023-03-08T12:38:01.454Z,4.10
2023-03-08T12:40:11.541Z,3.70
2023-03-08T12:42:17.811Z,3.80
2023-03-08T12:44:26.457Z,3.65
2023-03-08T12:46:30.795Z,3.13
2023-03-08T12:48:39.756Z,3.30
2023-03-08T12:50:49.066Z,2.85
2023-03-08T12:52:53.408Z,3.08
2023-03-08T12:54:59.390Z,2.78
2023-03-08T12:57:15.555Z,2.88
2023-03-08T12:59:34.507Z,2.72
2023-03-08T13:01:40.875Z,2.95
2023-03-08T13:03:46.074Z,2.15
2023-03-08T13:08:16.878Z,2.30
2023-03-08T13:10:23.599Z,3.63
2023-03-08T13:12:38.491Z,2.80
2023-03-08T13:14:44.903Z,2.58
2023-03-08T13:16:48.440Z,2.63
2023-03-08T13:19:04.724Z,1.90
2023-03-08T13:21:27.548Z,1.92
2023-03-08T13:23:38.264Z,2.22
2023-03-08T13:25:57.127Z,2.03
2023-03-08T13:28:07.460Z,1.70
2023-03-08T13:30:23.831Z,1.90
2023-03-08T13:32:27.728Z,2.17
2023-03-08T13:34:35.355Z,1.88
2023-03-08T13:36:39.249Z,1.83
2023-03-08T13:38:43.152Z,1.95
2023-03-08T13:40:52.973Z,2.10
2023-03-08T13:42:58.616Z,2.05
2023-03-08T13:45:11.594Z,2.05
2023-03-08T13:47:22.715Z,2.20
2023-03-08T13:49:28.941Z,1.80
2023-03-08T13:51:35.295Z,3.10
2023-03-08T13:53:41.248Z,2.20
2023-03-08T13:55:47.362Z,2.40
2023-03-08T13:57:54.083Z,2.17
2023-03-08T14:00:01.178Z,2.10
2023-03-08T14:02:20.737Z,2.33
2023-03-08T14:04:26.421Z,2.08
2023-03-08T14:06:35.784Z,2.00
2023-03-08T14:08:41.045Z,2.33
2023-03-08T14:12:50.734Z,2.42
2023-03-08T14:14:58.731Z,2.65
2023-03-08T14:17:03.181Z,2.20
2023-03-08T14:19:22.995Z,2.55
2023-03-08T14:21:28.539Z,3.45
2023-03-08T14:23:38.505Z,3.35
2023-03-08T14:25:42.268Z,3.22
2023-03-08T14:27:46.094Z,2.55
2023-03-08T14:29:50.226Z,3.20
2023-03-08T14:32:13.325Z,2.88
2023-03-08T14:34:22.720Z,2.28
2023-03-08T14:36:26.921Z,3.40
2023-03-08T14:38:34.299Z,2.92
2023-03-08T14:40:39.598Z,2.50
2023-03-08T14:42:45.908Z,2.50
2023-03-08T14:44:55.479Z,2.60
2023-03-08T14:47:09.773Z,2.35
2023-03-08T14:49:23.392Z,2.47
2023-03-08T14:51:31.417Z,3.10
2023-03-08T14:53:38.577Z,2.88
2023-03-08T14:55:43.114Z,2.45
2023-03-08T14:57:46.811Z,3.70
2023-03-08T14:59:51.314Z,2.80
2023-03-08T15:01:56.265Z,3.47
2023-03-08T15:04:00.835Z,2.63
2023-03-08T15:06:12.620Z,2.38
2023-03-08T15:10:30.612Z,1.77
2023-03-08T15:12:34.434Z,1.70
2023-03-08T15:14:38.065Z,1.77
2023-03-08T15:16:41.637Z,1.85
2023-03-08T15:18:45.400Z,2.20
2023-03-08T15:20:51.663Z,1.85
2023-03-08T15:23:00.878Z,2.10
2023-03-08T15:25:05.711Z,1.95
2023-03-08T15:27:14.960Z,2.72
2023-03-08T15:29:27.752Z,2.55
2023-03-08T15:31:32.294Z,2.42
2023-03-08T15:33:35.926Z,3.00
2023-03-08T15:35:43.023Z,3.33
2023-03-08T15:37:47.096Z,3.58
2023-03-08T15:39:50.761Z,2.58
2023-03-08T15:41:55.127Z,2.65
2023-03-08T15:44:00.121Z,2.55
2023-03-08T15:46:03.698Z,3.10
2023-03-08T15:48:09.408Z,2.30
2023-03-08T15:50:17.555Z,2.22
2023-03-08T15:52:23.333Z,2.65
2023-03-08T15:54:28.905Z,2.28
2023-03-08T15:56:32.823Z,2.38
2023-03-08T15:58:36.332Z,2.72
2023-03-08T16:00:41.409Z,2.60
2023-03-08T16:02:45.229Z,2.35
2023-03-08T16:04:49.530Z,2.15
2023-03-08T16:06:53.420Z,2.80
2023-03-08T16:08:58.331Z,2.28
2023-03-08T16:11:04.205Z,2.75
2023-03-08T16:13:08.420Z,3.03
2023-03-08T16:15:13.038Z,3.13
2023-03-08T16:17:19.081Z,2.30
2023-03-08T16:19:22.885Z,2.78
2023-03-08T16:21:27.311Z,3.67
2023-03-08T16:23:31.044Z,3.45
2023-03-08T16:25:34.824Z,4.53
2023-03-08T16:27:38.516Z,3.78
2023-03-08T16:29:42.555Z,5.85
2023-03-08T16:31:46.176Z,4.13
2023-03-08T16:33:51.301Z,4.15
2023-03-08T16:35:55.538Z,4.28
2023-03-08T16:37:59.196Z,3.65
2023-03-08T16:40:05.126Z,4.32
2023-03-08T16:42:12.894Z,4.03
2023-03-08T16:44:21.726Z,4.32
2023-03-08T16:46:25.619Z,3.55
2023-03-08T16:48:31.666Z,3.88
2023-03-08T16:50:37.153Z,3.28
2023-03-08T16:52:41.122Z,3.47
2023-03-08T16:54:45.203Z,3.95
2023-03-08T16:56:48.881Z,4.20
2023-03-08T16:58:53.109Z,3.80
2023-03-08T17:00:56.688Z,3.40
2023-03-08T17:03:00.357Z,4.78
2023-03-08T17:05:05.066Z,4.40
2023-03-08T17:07:11.060Z,4.45
2023-03-08T17:09:15.107Z,5.32
2023-03-08T17:11:19.732Z,4.40
2023-03-08T17:13:23.440Z,5.78
2023-03-08T17:15:27.114Z,4.32
2023-03-08T17:17:30.630Z,5.50
2023-03-08T17:19:34.399Z,4.68
2023-03-08T17:21:39.121Z,3.92
2023-03-08T17:23:44.156Z,3.58
2023-03-08T17:25:47.976Z,3.00
2023-03-08T17:27:53.396Z,3.28
2023-03-08T17:29:58.657Z,3.20
2023-03-08T17:32:02.489Z,17.38
2023-03-08T17:34:06.875Z,3.05
2023-03-08T17:36:13.017Z,3.80
2023-03-08T17:38:17.007Z,3.78
2023-03-08T17:40:24.017Z,4.38
2023-03-08T17:42:27.708Z,4.93
2023-03-08T17:44:31.652Z,3.95
2023-03-08T17:46:36.006Z,3.63
2023-03-08T17:48:39.877Z,4.13
2023-03-08T17:50:43.440Z,4.20
2023-03-08T17:52:47.340Z,4.03
2023-03-08T17:54:51.288Z,7.25
2023-03-08T17:56:56.605Z,5.00
2023-03-08T18:01:12.828Z,4.85
2023-03-08T18:03:16.418Z,4.35
2023-03-08T18:05:20.594Z,5.25
2023-03-08T18:07:28.333Z,5.70
2023-03-08T18:09:32.783Z,5.53
2023-03-08T18:11:38.300Z,6.00
2023-03-08T18:13:43.909Z,6.80
2023-03-08T18:15:47.545Z,8.00
2023-03-08T18:17:51.329Z,6.43
2023-03-08T18:19:55.134Z,6.72
2023-03-08T18:21:59.569Z,6.95
2023-03-08T18:24:05.690Z,7.55
2023-03-08T18:26:10.665Z,6.72
2023-03-08T18:28:15.605Z,7.80
2023-03-08T18:30:22.315Z,5.95
2023-03-08T18:32:28.264Z,6.88
2023-03-08T18:34:32.109Z,6.60
2023-03-08T18:36:36.344Z,6.47
2023-03-08T18:38:40.111Z,6.25
2023-03-08T18:40:43.784Z,8.27
2023-03-08T18:42:47.356Z,6.30
2023-03-08T18:44:51.596Z,7.05
2023-03-08T18:46:57.096Z,7.72
2023-03-08T18:49:03.220Z,6.93
2023-03-08T18:51:07.812Z,6.07
2023-03-08T18:53:12.814Z,6.50
2023-03-08T18:55:16.834Z,7.63
2023-03-08T18:57:21.007Z,8.07
2023-03-08T18:59:24.938Z,5.65
2023-03-08T19:01:30.645Z,7.88
2023-03-08T19:03:35.865Z,7.68
2023-03-08T19:05:39.665Z,7.55
2023-03-08T19:07:43.562Z,7.18
2023-03-08T19:09:47.339Z,7.38
2023-03-08T19:11:51.197Z,7.43
2023-03-08T19:13:55.031Z,7.88
2023-03-08T19:15:58.693Z,7.25
2023-03-08T19:18:02.458Z,8.07
2023-03-08T19:20:08.935Z,7.88
2023-03-08T19:22:12.702Z,9.32
2023-03-08T19:24:18.248Z,9.30
2023-03-08T19:26:38.805Z,9.95
2023-03-08T19:28:42.567Z,9.48
2023-03-08T19:30:46.349Z,8.60
2023-03-08T19:32:50.273Z,7.18
2023-03-08T19:34:53.910Z,10.48
2023-03-08T19:36:59.587Z,8.82
2023-03-08T19:39:04.189Z,8.73
2023-03-08T19:41:10.150Z,9.75
2023-03-08T19:43:14.006Z,8.20
2023-03-08T19:45:17.692Z,9.23
2023-03-08T19:47:22.124Z,10.45
2023-03-08T19:49:29.918Z,10.63
2023-03-08T19:51:34.404Z,9.18
2023-03-08T19:53:40.409Z,8.93
2023-03-08T19:55:50.684Z,9.23
2023-03-08T19:57:54.601Z,8.75
2023-03-08T19:59:59.754Z,8.45
2023-03-08T20:04:08.737Z,7.32
2023-03-08T20:06:12.700Z,8.95
2023-03-08T20:08:16.577Z,9.00
2023-03-08T20:10:23.518Z,7.65
2023-03-08T20:12:27.337Z,7.70
2023-03-08T20:14:31.123Z,8.10
2023-03-08T20:16:35.297Z,8.05
2023-03-08T20:18:39.372Z,7.47
2023-03-08T20:20:45.052Z,7.00
2023-03-08T20:22:48.959Z,7.45
2023-03-08T20:24:52.960Z,7.32
2023-03-08T20:26:59.622Z,7.00
2023-03-08T20:29:04.044Z,6.93
2023-03-08T20:31:13.084Z,7.25
2023-03-08T20:33:17.592Z,7.43
2023-03-08T20:35:23.984Z,8.05
2023-03-08T20:37:28.304Z,7.70
2023-03-08T20:39:32.046Z,7.63
2023-03-08T20:41:36.113Z,7.88
2023-03-08T20:43:42.454Z,8.15
2023-03-08T20:45:46.305Z,7.78
2023-03-08T20:47:50.258Z,6.93
2023-03-08T20:49:54.372Z,8.63
2023-03-08T20:51:58.800Z,8.18
2023-03-08T20:54:03.562Z,8.45
2023-03-08T20:56:10.006Z,9.48
2023-03-08T20:58:14.824Z,8.27
2023-03-08T21:00:21.174Z,7.60
2023-03-08T21:02:29.890Z,7.63
2023-03-08T21:04:33.928Z,6.88
2023-03-08T21:06:38.368Z,8.27
2023-03-08T21:08:43.366Z,7.57
2023-03-08T21:10:47.534Z,7.65
2023-03-08T21:12:51.334Z,7.57
2023-03-08T21:14:56.706Z,9.38
2023-03-08T21:17:02.329Z,8.30
2023-03-08T21:19:07.144Z,7.70
2023-03-08T21:21:19.217Z,8.23
2023-03-08T21:23:24.459Z,7.78
2023-03-08T21:27:33.072Z,6.90
2023-03-08T21:29:37.499Z,7.55
2023-03-08T21:31:44.694Z,8.35
2023-03-08T21:33:50.801Z,7.93
2023-03-08T21:35:58.637Z,7.03
2023-03-08T21:38:03.313Z,6.15
2023-03-08T21:42:14.861Z,8.90
2023-03-08T21:44:21.450Z,7.18
2023-03-08T21:46:26.999Z,7.82
2023-03-08T21:48:30.526Z,7.70
2023-03-08T21:50:36.139Z,7.30
2023-03-08T21:52:40.089Z,7.80
2023-03-08T21:54:44.111Z,8.07
2023-03-08T21:56:48.636Z,7.50
2023-03-08T21:58:53.308Z,7.78
2023-03-08T22:00:57.489Z,7.97
2023-03-08T22:03:01.723Z,8.55
2023-03-08T22:05:07.328Z,7.78
2023-03-08T22:07:12.533Z,6.28
2023-03-08T22:11:21.213Z,7.00
2023-03-08T22:13:25.242Z,8.35
2023-03-08T22:15:29.097Z,7.75
2023-03-08T22:17:32.829Z,7.20
2023-03-08T22:19:36.397Z,7.95
2023-03-08T22:21:40.238Z,7.97
2023-03-08T22:23:46.013Z,7.47
2023-03-08T22:25:50.057Z,8.30
2023-03-08T22:27:54.000Z,7.45
2023-03-08T22:29:57.958Z,7.55
2023-03-08T22:32:01.925Z,7.30
2023-03-08T22:34:06.909Z,8.45
2023-03-08T22:36:12.562Z,8.40
2023-03-08T22:38:18.716Z,7.00
2023-03-08T22:40:24.046Z,7.95
2023-03-08T22:44:31.131Z,7.28
2023-03-08T22:46:34.841Z,7.35
2023-03-08T22:48:38.505Z,7.13
2023-03-08T22:50:42.406Z,7.50
2023-03-08T22:52:46.425Z,7.28
2023-03-08T22:54:50.284Z,7.63
2023-03-08T22:56:56.745Z,9.20
2023-03-08T22:59:01.106Z,7.55
2023-03-08T23:01:04.994Z,7.35
2023-03-08T23:03:08.732Z,7.20
2023-03-08T23:05:13.751Z,7.13
2023-03-08T23:07:17.553Z,7.20
2023-03-08T23:09:22.445Z,7.30
2023-03-08T23:11:26.258Z,6.82
2023-03-08T23:13:34.265Z,6.35
2023-03-08T23:15:38.588Z,7.13
2023-03-08T23:17:42.464Z,6.97
2023-03-08T23:19:46.287Z,7.32
2023-03-08T23:21:50.423Z,7.75
2023-03-08T23:23:54.448Z,7.32
2023-03-08T23:25:58.248Z,7.50
2023-03-08T23:28:02.191Z,7.20
2023-03-08T23:30:09.372Z,7.50
2023-03-08T23:32:13.032Z,6.60
2023-03-08T23:34:16.840Z,6.95
2023-03-08T23:36:23.086Z,7.53
2023-03-08T23:38:26.831Z,7.90
2023-03-08T23:40:30.426Z,7.47
2023-03-08T23:42:35.033Z,7.25
2023-03-08T23:44:39.618Z,7.05
2023-03-08T23:46:46.408Z,7.07
2023-03-08T23:48:50.396Z,6.97
2023-03-08T23:50:54.184Z,8.00
2023-03-08T23:52:57.830Z,7.75
2023-03-08T23:55:01.616Z,7.22
2023-03-08T23:57:05.942Z,6.82
2023-03-08T23:59:13.215Z,7.05
